Back to top

Casper, Wyoming Weather

Natrona County International Airport, Casper, WY: 9/16/2019 20:53
Visibility10 statute milesclear sky
View 7-Day Forecast
Area Summary
Sky/CloudsSky Clear
Weather [last 24 hours]None
Pressure29.88 in.Hg (1012 hPa)
Dew Point37.4 °F (3 °C)
Relative Humidity30.5 %
Temperature69.8 °F (21 °C)red thermometer
Wind13.8 MPH (12 KT) green arrow pointing 225 degrees
Wind FromSouthwest (220 Degrees)
Twilight Begins06:20Sunshine Yesterday
Sunrise06:48N/A
Sunset19:11
Twilight Ends19:39
METARKCPR 170253Z 22012KT 10SM CLR 21/03 A2988